Time;durP1;ratioP1;P1;durP2;ratioP2;P2;SDS_P1;SDS_P2;PMS_P1;PMS_P2;Temp;Humidity;BMP_temperature;BMP_pressure;BME280_temperature;BME280_humidity;BME280_pressure;Samples;Min_cycle;Max_cycle;Signal;HPM_P1;HPM_P2
2021/08/23 00:02:00;;;;;;;3.97;1.80;;;;;;;;;;6180655;23;20219;-90
2021/08/23 00:05:05;;;;;;;4.38;1.70;;;;;;;;;;6180120;23;20164;-89
2021/08/23 00:08:11;;;;;;;4.07;1.40;;;;;;;;;;6178776;23;20755;-92
2021/08/23 00:11:17;;;;;;;3.20;1.50;;;;;;;;;;6178505;23;20208;-89
2021/08/23 00:14:24;;;;;;;3.35;1.40;;;;;;;;;;6180772;23;20175;-90
2021/08/23 00:17:29;;;;;;;6.53;2.70;;;;;;;;;;6179957;23;20504;-89
2021/08/23 00:20:43;;;;;;;4.75;1.63;;;;;;;;;;6179415;23;20187;-88
2021/08/23 00:23:52;;;;;;;2.63;1.40;;;;;;;;;;6180996;23;20192;-88
2021/08/23 00:26:59;;;;;;;2.10;1.60;;;;;;;;;;6180496;23;20175;-88
2021/08/23 00:30:05;;;;;;;2.83;1.35;;;;;;;;;;6180737;23;20223;-92
2021/08/23 00:33:10;;;;;;;6.80;1.67;;;;;;;;;;6180606;23;20607;-91
2021/08/23 00:36:15;;;;;;;4.22;1.88;;;;;;;;;;6180911;23;20176;-89
2021/08/23 00:39:22;;;;;;;2.67;1.50;;;;;;;;;;6178122;23;20167;-90
2021/08/23 00:42:27;;;;;;;8.30;1.50;;;;;;;;;;6179501;23;20175;-89
2021/08/23 00:45:32;;;;;;;4.05;1.20;;;;;;;;;;6179143;23;20179;-91
2021/08/23 00:48:37;;;;;;;5.85;1.30;;;;;;;;;;6178376;23;20208;-91
2021/08/23 00:51:43;;;;;;;5.15;1.60;;;;;;;;;;6178603;23;20156;-90
2021/08/23 00:54:49;;;;;;;4.30;1.30;;;;;;;;;;6180041;23;20163;-90
2021/08/23 00:57:55;;;;;;;4.50;1.50;;;;;;;;;;6178922;23;20666;-90
2021/08/23 01:01:02;;;;;;;3.53;1.83;;;;;;;;;;6178616;23;20172;-91
2021/08/23 01:04:11;;;;;;;7.35;1.67;;;;;;;;;;6178319;23;20168;-90
2021/08/23 01:07:18;;;;;;;2.72;1.60;;;;;;;;;;6178711;23;20607;-90
2021/08/23 01:10:26;;;;;;;4.05;1.60;;;;;;;;;;6179917;23;20172;-89
2021/08/23 01:13:32;;;;;;;5.05;1.80;;;;;;;;;;6180368;23;20167;-90
2021/08/23 01:16:37;;;;;;;8.60;1.52;;;;;;;;;;6179624;23;20176;-89
2021/08/23 01:19:47;;;;;;;3.42;1.70;;;;;;;;;;6180204;23;20230;-90
2021/08/23 01:22:54;;;;;;;6.13;1.55;;;;;;;;;;6180117;23;20249;-89
2021/08/23 01:26:00;;;;;;;6.88;1.90;;;;;;;;;;6178331;23;20505;-89
2021/08/23 01:29:08;;;;;;;5.22;1.85;;;;;;;;;;6179488;23;20200;-88
2021/08/23 01:32:16;;;;;;;3.38;1.67;;;;;;;;;;6178519;23;20172;-89
2021/08/23 01:35:22;;;;;;;7.15;1.83;;;;;;;;;;6179913;23;20269;-89
2021/08/23 01:38:28;;;;;;;6.18;1.90;;;;;;;;;;6179339;23;20248;-90
2021/08/23 01:41:33;;;;;;;3.78;1.55;;;;;;;;;;6179568;23;20231;-90
2021/08/23 01:44:39;;;;;;;3.25;1.83;;;;;;;;;;6178216;23;20180;-90
2021/08/23 01:47:46;;;;;;;3.47;1.98;;;;;;;;;;6162604;23;20195;-90
2021/08/23 01:50:51;;;;;;;2.97;1.73;;;;;;;;;;6180129;23;20499;-89
2021/08/23 01:53:56;;;;;;;3.85;1.65;;;;;;;;;;6180101;23;20731;-91
2021/08/23 01:57:01;;;;;;;4.70;1.60;;;;;;;;;;6180141;23;20187;-89
2021/08/23 02:00:07;;;;;;;3.65;1.60;;;;;;;;;;6179262;23;20554;-91
2021/08/23 02:03:14;;;;;;;4.95;2.10;;;;;;;;;;6180039;23;20236;-89
2021/08/23 02:06:19;;;;;;;3.97;1.90;;;;;;;;;;6178513;23;20176;-89
2021/08/23 02:09:24;;;;;;;2.78;1.90;;;;;;;;;;6179439;23;20222;-89
2021/08/23 02:12:29;;;;;;;4.93;2.10;;;;;;;;;;6179936;23;20224;-91
2021/08/23 02:15:35;;;;;;;6.68;2.40;;;;;;;;;;6177938;23;20313;-90
2021/08/23 02:18:41;;;;;;;3.25;1.98;;;;;;;;;;6179723;23;20172;-91
2021/08/23 02:21:48;;;;;;;5.32;2.33;;;;;;;;;;6179996;23;20208;-90
2021/08/23 02:24:53;;;;;;;4.20;2.10;;;;;;;;;;6181018;23;20184;-91
2021/08/23 02:27:58;;;;;;;7.40;3.50;;;;;;;;;;6179166;23;20167;-90
2021/08/23 02:31:03;;;;;;;3.72;2.33;;;;;;;;;;6178208;23;20502;-90
2021/08/23 02:34:11;;;;;;;5.00;2.03;;;;;;;;;;6179637;23;20292;-90
2021/08/23 02:37:16;;;;;;;6.78;2.30;;;;;;;;;;6177826;23;20627;-90
2021/08/23 02:40:21;;;;;;;6.43;2.55;;;;;;;;;;6178093;23;20152;-89
2021/08/23 02:43:26;;;;;;;6.05;2.50;;;;;;;;;;6177810;23;20611;-89
2021/08/23 02:46:31;;;;;;;4.82;2.13;;;;;;;;;;6178062;23;20168;-91
2021/08/23 02:49:38;;;;;;;2.78;2.15;;;;;;;;;;6177120;23;20195;-91
2021/08/23 02:52:43;;;;;;;4.07;2.40;;;;;;;;;;6179024;23;20168;-90
2021/08/23 02:55:48;;;;;;;5.07;2.53;;;;;;;;;;6179351;23;20223;-91
2021/08/23 02:58:53;;;;;;;8.00;2.58;;;;;;;;;;6180266;23;20155;-90
2021/08/23 03:01:58;;;;;;;3.08;2.10;;;;;;;;;;6180384;23;20171;-89
2021/08/23 03:05:06;;;;;;;5.95;2.30;;;;;;;;;;6181968;23;20195;-91
2021/08/23 03:08:11;;;;;;;10.57;3.90;;;;;;;;;;6188754;23;20501;-90
2021/08/23 03:11:17;;;;;;;6.07;2.45;;;;;;;;;;6188677;23;20172;-91
2021/08/23 03:14:24;;;;;;;11.18;2.67;;;;;;;;;;6205548;23;20159;-89
2021/08/23 03:17:29;;;;;;;9.68;2.47;;;;;;;;;;6180322;23;20167;-90
2021/08/23 03:20:36;;;;;;;6.30;2.50;;;;;;;;;;6182030;23;20176;-90
2021/08/23 03:23:41;;;;;;;6.68;2.70;;;;;;;;;;6179799;23;20203;-91
2021/08/23 03:26:46;;;;;;;6.00;2.78;;;;;;;;;;6180915;23;20175;-90
2021/08/23 03:29:53;;;;;;;7.85;2.67;;;;;;;;;;6180103;23;20195;-91
2021/08/23 03:32:58;;;;;;;5.35;2.60;;;;;;;;;;6180703;23;20500;-90
2021/08/23 03:36:05;;;;;;;11.05;2.70;;;;;;;;;;6182291;23;20236;-92
2021/08/23 03:39:10;;;;;;;8.10;2.50;;;;;;;;;;6180237;23;20163;-91
2021/08/23 03:42:15;;;;;;;5.35;2.42;;;;;;;;;;6180622;23;20191;-90
2021/08/23 03:45:20;;;;;;;8.60;2.42;;;;;;;;;;6180085;23;20171;-90
2021/08/23 03:48:25;;;;;;;6.53;2.50;;;;;;;;;;6179740;23;20658;-91
2021/08/23 03:51:32;;;;;;;5.75;2.78;;;;;;;;;;6180808;23;20168;-90
2021/08/23 03:54:38;;;;;;;4.60;2.40;;;;;;;;;;6180009;23;20167;-90
2021/08/23 03:57:44;;;;;;;6.72;2.90;;;;;;;;;;6179974;23;20229;-90
2021/08/23 04:01:25;;;;;;;3.85;2.63;;;;;;;;;;6181552;23;20176;-90
2021/08/23 04:04:30;;;;;;;4.00;2.65;;;;;;;;;;6180940;23;20216;-90
2021/08/23 04:07:37;;;;;;;7.75;2.75;;;;;;;;;;6180029;23;20259;-91
2021/08/23 04:10:42;;;;;;;11.00;2.92;;;;;;;;;;6180903;23;20527;-92
2021/08/23 04:13:48;;;;;;;7.57;2.95;;;;;;;;;;6182865;23;20211;-90
2021/08/23 04:16:53;;;;;;;7.38;2.85;;;;;;;;;;6182107;23;20215;-90
2021/08/23 04:19:58;;;;;;;6.70;2.88;;;;;;;;;;6182058;23;20172;-89
2021/08/23 04:23:05;;;;;;;9.63;4.82;;;;;;;;;;6182046;23;20502;-90
2021/08/23 04:26:20;;;;;;;8.05;2.90;;;;;;;;;;6184402;23;20173;-91
2021/08/23 04:29:25;;;;;;;6.82;2.88;;;;;;;;;;6183100;23;20199;-90
2021/08/23 04:32:30;;;;;;;6.47;2.92;;;;;;;;;;6180463;23;20179;-91
2021/08/23 04:35:35;;;;;;;9.13;3.10;;;;;;;;;;6182001;23;20164;-92
2021/08/23 04:38:42;;;;;;;6.00;2.88;;;;;;;;;;6179287;23;20191;-90
2021/08/23 04:41:47;;;;;;;5.88;2.75;;;;;;;;;;6181140;23;20207;-91
2021/08/23 04:44:52;;;;;;;15.65;3.22;;;;;;;;;;6178951;23;20171;-92
2021/08/23 04:47:56;;;;;;;9.52;3.42;;;;;;;;;;6180700;23;20199;-92
2021/08/23 04:51:04;;;;;;;4.72;2.60;;;;;;;;;;6179060;23;20680;-91
2021/08/23 04:54:10;;;;;;;12.75;5.63;;;;;;;;;;6181899;23;20233;-90
2021/08/23 04:57:16;;;;;;;7.82;2.90;;;;;;;;;;6180158;23;20241;-90
2021/08/23 05:00:21;;;;;;;4.68;2.92;;;;;;;;;;6179622;23;20620;-91
2021/08/23 05:03:26;;;;;;;8.68;2.88;;;;;;;;;;6177702;23;20171;-92
2021/08/23 05:06:31;;;;;;;8.85;3.05;;;;;;;;;;6177453;23;20243;-91
2021/08/23 05:09:37;;;;;;;8.15;2.80;;;;;;;;;;6177864;23;20195;-91
2021/08/23 05:12:42;;;;;;;7.43;3.10;;;;;;;;;;6178589;23;20167;-91
2021/08/23 05:15:47;;;;;;;9.32;3.10;;;;;;;;;;6179452;23;20283;-91
2021/08/23 05:18:52;;;;;;;5.80;2.60;;;;;;;;;;6178852;23;20171;-91
2021/08/23 05:21:57;;;;;;;11.60;2.75;;;;;;;;;;6179597;23;20223;-91
2021/08/23 05:25:03;;;;;;;9.35;3.03;;;;;;;;;;6180457;23;20206;-91
2021/08/23 05:28:10;;;;;;;4.90;2.67;;;;;;;;;;6179902;23;20167;-91
2021/08/23 05:31:15;;;;;;;8.68;2.88;;;;;;;;;;6183007;23;20694;-91
2021/08/23 05:34:21;;;;;;;6.90;2.60;;;;;;;;;;6183900;23;20208;-92
2021/08/23 05:37:26;;;;;;;7.65;3.10;;;;;;;;;;6181006;23;20168;-90
2021/08/23 05:40:35;;;;;;;4.90;2.80;;;;;;;;;;6179680;23;20171;-91
2021/08/23 05:43:39;;;;;;;7.78;3.33;;;;;;;;;;6181481;23;20171;-90
2021/08/23 05:46:44;;;;;;;11.52;3.85;;;;;;;;;;6180705;23;20327;-90
2021/08/23 05:49:49;;;;;;;7.30;3.30;;;;;;;;;;6180207;23;20615;-90
2021/08/23 05:52:59;;;;;;;5.57;3.13;;;;;;;;;;6179850;23;20170;-91
2021/08/23 05:56:09;;;;;;;7.38;3.08;;;;;;;;;;6181596;23;20175;-91
2021/08/23 05:59:14;;;;;;;7.90;3.30;;;;;;;;;;6181795;23;20236;-90
2021/08/23 06:02:19;;;;;;;7.47;3.33;;;;;;;;;;6181501;23;20172;-91
2021/08/23 06:05:25;;;;;;;5.50;3.10;;;;;;;;;;6181406;23;20220;-90
2021/08/23 06:08:30;;;;;;;9.50;2.63;;;;;;;;;;6186152;23;20215;-89
2021/08/23 06:11:37;;;;;;;4.75;2.83;;;;;;;;;;6181382;23;20180;-89
2021/08/23 06:14:42;;;;;;;7.93;2.97;;;;;;;;;;6180986;23;20245;-90
2021/08/23 06:17:47;;;;;;;6.22;2.55;;;;;;;;;;6180364;23;20207;-88
2021/08/23 06:20:53;;;;;;;7.75;3.25;;;;;;;;;;6178164;23;20164;-89
2021/08/23 06:23:58;;;;;;;7.15;3.08;;;;;;;;;;6179269;23;20176;-90
2021/08/23 06:27:06;;;;;;;6.70;3.20;;;;;;;;;;6181208;23;20171;-89
2021/08/23 06:30:13;;;;;;;7.82;3.25;;;;;;;;;;6178171;23;20219;-89
2021/08/23 06:33:17;;;;;;;6.85;3.00;;;;;;;;;;6182843;23;20184;-90
2021/08/23 06:36:27;;;;;;;7.43;3.28;;;;;;;;;;6181425;23;20231;-90
2021/08/23 06:39:32;;;;;;;4.25;2.80;;;;;;;;;;6181349;23;20163;-90
2021/08/23 06:42:40;;;;;;;5.80;3.15;;;;;;;;;;6178356;23;20229;-90
2021/08/23 06:45:45;;;;;;;5.65;2.83;;;;;;;;;;6180155;23;20234;-91
2021/08/23 06:48:50;;;;;;;6.55;2.72;;;;;;;;;;6180640;23;20188;-90
2021/08/23 06:51:55;;;;;;;7.55;2.80;;;;;;;;;;6179244;23;20172;-90
2021/08/23 06:55:03;;;;;;;5.10;3.17;;;;;;;;;;6183842;23;20175;-90
2021/08/23 06:58:10;;;;;;;8.02;2.55;;;;;;;;;;6183109;23;20172;-89
2021/08/23 07:01:15;;;;;;;6.88;2.85;;;;;;;;;;6179436;23;20167;-89
2021/08/23 07:04:23;;;;;;;5.65;2.60;;;;;;;;;;6179746;23;20183;-90
2021/08/23 07:07:30;;;;;;;8.45;3.08;;;;;;;;;;6181568;23;20171;-91
2021/08/23 07:10:35;;;;;;;6.47;2.70;;;;;;;;;;6179759;23;20196;-90
2021/08/23 07:13:42;;;;;;;7.82;2.83;;;;;;;;;;6178166;23;20176;-89
2021/08/23 07:16:47;;;;;;;6.43;2.55;;;;;;;;;;6179610;23;20176;-91
2021/08/23 07:19:53;;;;;;;6.10;2.50;;;;;;;;;;6179768;23;20172;-90
2021/08/23 07:22:58;;;;;;;4.07;2.20;;;;;;;;;;6179929;23;20176;-91
2021/08/23 07:26:04;;;;;;;5.70;1.95;;;;;;;;;;6180848;23;20176;-91
2021/08/23 07:29:12;;;;;;;6.47;2.33;;;;;;;;;;6183089;23;20203;-89
2021/08/23 07:32:18;;;;;;;6.30;1.88;;;;;;;;;;6183762;23;20176;-91
2021/08/23 07:35:22;;;;;;;5.80;2.30;;;;;;;;;;6184464;23;20171;-90
2021/08/23 07:38:28;;;;;;;5.57;2.20;;;;;;;;;;6183216;23;20172;-89
2021/08/23 07:41:33;;;;;;;6.68;2.38;;;;;;;;;;6182155;23;20168;-90
2021/08/23 07:44:40;;;;;;;7.70;2.50;;;;;;;;;;6180309;23;20237;-91
2021/08/23 07:47:46;;;;;;;7.80;2.58;;;;;;;;;;6182980;23;20240;-89
2021/08/23 07:50:51;;;;;;;6.50;2.28;;;;;;;;;;6183903;23;20269;-90
2021/08/23 07:53:56;;;;;;;4.10;2.05;;;;;;;;;;6182700;23;20172;-90
2021/08/23 07:57:01;;;;;;;7.25;2.47;;;;;;;;;;6185224;23;20160;-89
2021/08/23 08:00:10;;;;;;;5.55;2.70;;;;;;;;;;6185897;23;20172;-90
2021/08/23 08:03:17;;;;;;;9.63;3.28;;;;;;;;;;6200152;23;20306;-91
2021/08/23 08:06:21;;;;;;;5.40;2.60;;;;;;;;;;6177553;23;20192;-91
2021/08/23 08:09:26;;;;;;;4.90;2.28;;;;;;;;;;6181297;23;20163;-90
2021/08/23 08:12:32;;;;;;;7.78;2.50;;;;;;;;;;6179264;23;20172;-91
2021/08/23 08:15:41;;;;;;;3.88;2.33;;;;;;;;;;6182386;23;20287;-91
2021/08/23 08:18:48;;;;;;;7.82;2.40;;;;;;;;;;6182343;23;20172;-91
2021/08/23 08:21:54;;;;;;;5.40;2.50;;;;;;;;;;6183596;23;20219;-90
2021/08/23 08:25:00;;;;;;;7.13;2.35;;;;;;;;;;6183497;23;20183;-91
2021/08/23 08:28:06;;;;;;;6.60;2.63;;;;;;;;;;6179390;23;20550;-91
2021/08/23 08:31:13;;;;;;;6.63;2.17;;;;;;;;;;6180062;23;20272;-89
2021/08/23 08:34:18;;;;;;;6.18;1.90;;;;;;;;;;6180615;23;20176;-87
2021/08/23 08:37:25;;;;;;;4.43;2.35;;;;;;;;;;6178102;23;20191;-87
2021/08/23 08:40:31;;;;;;;4.35;2.17;;;;;;;;;;6187135;23;20172;-87
2021/08/23 08:43:37;;;;;;;6.78;2.30;;;;;;;;;;6188125;23;20175;-88
2021/08/23 08:46:44;;;;;;;5.03;2.15;;;;;;;;;;6179141;23;20176;-90
2021/08/23 08:49:49;;;;;;;6.22;2.13;;;;;;;;;;6178805;23;20191;-89
2021/08/23 08:52:54;;;;;;;4.75;2.20;;;;;;;;;;6177386;23;20168;-88
2021/08/23 08:55:59;;;;;;;4.70;2.22;;;;;;;;;;6178135;23;20175;-88
2021/08/23 08:59:05;;;;;;;4.00;1.85;;;;;;;;;;6177969;23;20176;-90
2021/08/23 09:02:12;;;;;;;2.65;1.70;;;;;;;;;;6177913;23;20221;-87
2021/08/23 09:05:17;;;;;;;2.92;1.60;;;;;;;;;;6179500;23;20176;-90
2021/08/23 09:08:27;;;;;;;4.65;1.70;;;;;;;;;;6178615;23;20180;-89
2021/08/23 09:11:32;;;;;;;4.38;1.75;;;;;;;;;;6179621;23;20191;-89
2021/08/23 09:14:40;;;;;;;4.00;1.95;;;;;;;;;;6181569;23;20272;-88
2021/08/23 09:17:47;;;;;;;5.10;1.70;;;;;;;;;;6183132;23;20204;-89
2021/08/23 09:20:59;;;;;;;3.28;1.95;;;;;;;;;;6178594;23;20168;-89
2021/08/23 09:24:07;;;;;;;2.92;1.60;;;;;;;;;;6179271;23;20208;-89
2021/08/23 09:27:14;;;;;;;4.35;1.70;;;;;;;;;;6179805;23;20179;-90
2021/08/23 09:30:21;;;;;;;3.92;1.90;;;;;;;;;;6177467;23;20235;-87
2021/08/23 09:33:27;;;;;;;3.88;1.58;;;;;;;;;;6179922;23;20231;-88
2021/08/23 09:36:33;;;;;;;1.95;1.25;;;;;;;;;;6180384;23;20191;-90
2021/08/23 09:39:38;;;;;;;2.05;1.27;;;;;;;;;;6182589;23;20171;-90
2021/08/23 09:42:43;;;;;;;3.35;1.30;;;;;;;;;;6180815;23;20171;-88
2021/08/23 09:45:49;;;;;;;3.72;1.33;;;;;;;;;;6178498;23;20291;-89
2021/08/23 09:48:58;;;;;;;4.72;1.90;;;;;;;;;;6178432;23;20172;-89
2021/08/23 09:52:03;;;;;;;3.75;1.35;;;;;;;;;;6180133;23;20196;-89
2021/08/23 09:55:09;;;;;;;3.47;1.60;;;;;;;;;;6180228;23;20180;-88
2021/08/23 09:58:14;;;;;;;7.10;1.85;;;;;;;;;;6178010;23;20172;-88
2021/08/23 10:01:21;;;;;;;5.28;1.92;;;;;;;;;;6180064;23;20176;-88
2021/08/23 10:04:29;;;;;;;4.80;1.67;;;;;;;;;;6181235;23;20225;-86
2021/08/23 10:07:35;;;;;;;3.42;1.65;;;;;;;;;;6198538;23;20171;-90
2021/08/23 10:10:40;;;;;;;2.20;1.50;;;;;;;;;;6178549;23;20195;-90
2021/08/23 10:13:46;;;;;;;2.35;1.33;;;;;;;;;;6179545;23;20215;-89
2021/08/23 10:16:52;;;;;;;2.83;1.60;;;;;;;;;;6181009;23;20219;-90
2021/08/23 10:19:59;;;;;;;2.90;1.50;;;;;;;;;;6179609;23;20562;-87
2021/08/23 10:23:04;;;;;;;3.70;2.00;;;;;;;;;;6179496;23;20171;-90
2021/08/23 10:26:10;;;;;;;3.60;1.50;;;;;;;;;;6177980;23;20171;-88
2021/08/23 10:29:15;;;;;;;4.78;1.63;;;;;;;;;;6196498;23;20167;-88
2021/08/23 10:32:21;;;;;;;8.15;1.58;;;;;;;;;;6161917;23;20195;-86
2021/08/23 10:35:29;;;;;;;5.47;1.80;;;;;;;;;;6180179;23;20231;-88
2021/08/23 10:38:37;;;;;;;4.88;1.90;;;;;;;;;;6181088;23;20168;-88
2021/08/23 10:41:42;;;;;;;6.07;2.13;;;;;;;;;;6182451;23;20168;-89
2021/08/23 10:44:47;;;;;;;5.65;2.50;;;;;;;;;;6181877;23;20172;-87
2021/08/23 10:47:52;;;;;;;5.07;2.03;;;;;;;;;;6179996;23;20195;-89
2021/08/23 10:51:03;;;;;;;5.07;2.22;;;;;;;;;;6180173;23;20176;-90
2021/08/23 10:57:43;;;;;;;4.05;2.28;;;;;;;;;;6179002;23;20168;-91
2021/08/23 11:00:47;;;;;;;4.80;2.13;;;;;;;;;;6180102;23;20208;-89
2021/08/23 11:04:02;;;;;;;3.55;2.10;;;;;;;;;;6179777;23;20168;-88
2021/08/23 11:07:25;;;;;;;3.60;1.90;;;;;;;;;;6196151;23;20172;-89
2021/08/23 11:10:32;;;;;;;3.33;1.88;;;;;;;;;;6181494;23;20172;-90
2021/08/23 11:13:40;;;;;;;5.72;1.88;;;;;;;;;;6180771;23;20211;-90
2021/08/23 11:16:52;;;;;;;12.32;2.45;;;;;;;;;;6182398;23;20219;-90
2021/08/23 11:19:57;;;;;;;4.10;1.52;;;;;;;;;;6182372;23;20159;-88
2021/08/23 11:23:06;;;;;;;3.75;1.58;;;;;;;;;;6182383;23;20215;-90
2021/08/23 11:26:13;;;;;;;3.35;2.08;;;;;;;;;;6182551;23;20559;-89
2021/08/23 11:29:19;;;;;;;3.50;2.28;;;;;;;;;;6181700;23;20179;-88
2021/08/23 11:32:27;;;;;;;2.90;2.05;;;;;;;;;;6184694;23;20203;-90
2021/08/23 11:35:33;;;;;;;7.90;3.33;;;;;;;;;;6182386;23;20208;-90
2021/08/23 11:38:40;;;;;;;4.85;2.53;;;;;;;;;;6181228;23;20179;-88
2021/08/23 11:41:47;;;;;;;7.10;2.63;;;;;;;;;;6184378;23;20228;-89
2021/08/23 11:44:54;;;;;;;5.40;2.72;;;;;;;;;;6182044;23;20171;-91
2021/08/23 11:48:01;;;;;;;7.05;2.80;;;;;;;;;;6181935;23;20196;-89
2021/08/23 11:51:07;;;;;;;3.70;2.30;;;;;;;;;;6181066;23;20235;-89
2021/08/23 11:54:14;;;;;;;3.35;2.10;;;;;;;;;;6180976;23;20168;-89
2021/08/23 11:57:20;;;;;;;2.80;1.90;;;;;;;;;;6181261;23;20486;-91
2021/08/23 12:00:25;;;;;;;2.63;1.90;;;;;;;;;;6182350;23;20170;-89
2021/08/23 12:03:31;;;;;;;2.47;1.88;;;;;;;;;;6183462;23;20611;-90
2021/08/23 12:06:37;;;;;;;3.28;2.08;;;;;;;;;;6183141;23;20242;-90
2021/08/23 12:09:44;;;;;;;4.32;2.03;;;;;;;;;;6182218;23;20175;-89
2021/08/23 12:12:50;;;;;;;3.58;1.95;;;;;;;;;;6181997;23;20198;-90
2021/08/23 20:43:54;;;;;;;11.48;7.72;;;;;;;;;;6167991;23;20220;-89
2021/08/23 20:46:59;;;;;;;11.85;7.93;;;;;;;;;;6181262;23;20172;-90
2021/08/23 20:50:04;;;;;;;12.57;7.63;;;;;;;;;;6178491;23;20571;-90
2021/08/23 20:53:09;;;;;;;13.70;7.65;;;;;;;;;;6178361;23;20196;-91
2021/08/23 20:56:15;;;;;;;11.93;7.72;;;;;;;;;;6179769;23;20159;-91
2021/08/23 20:59:21;;;;;;;13.77;8.10;;;;;;;;;;6178122;23;20227;-90
2021/08/23 21:02:27;;;;;;;11.02;7.35;;;;;;;;;;6179558;23;20172;-91
2021/08/23 21:05:31;;;;;;;13.43;7.57;;;;;;;;;;6180168;23;20171;-89
2021/08/23 21:08:36;;;;;;;12.13;7.95;;;;;;;;;;6178481;23;20171;-88
2021/08/23 21:11:41;;;;;;;14.13;8.23;;;;;;;;;;6178162;23;20319;-87
2021/08/23 21:14:48;;;;;;;16.83;8.20;;;;;;;;;;6177996;23;20179;-88
2021/08/23 21:17:52;;;;;;;12.13;8.05;;;;;;;;;;6178252;23;20503;-90
2021/08/23 21:20:58;;;;;;;12.98;7.88;;;;;;;;;;6180042;23;20196;-90
2021/08/23 21:24:03;;;;;;;12.43;8.05;;;;;;;;;;6180443;23;20191;-90
2021/08/23 21:27:09;;;;;;;13.02;8.52;;;;;;;;;;6185430;23;20208;-90
2021/08/23 21:30:15;;;;;;;17.17;8.27;;;;;;;;;;6184027;23;20168;-89
2021/08/23 21:33:21;;;;;;;15.65;8.38;;;;;;;;;;6183459;23;20243;-90
2021/08/23 21:36:26;;;;;;;16.50;9.85;;;;;;;;;;6182474;23;20163;-91
2021/08/23 21:39:31;;;;;;;15.05;8.82;;;;;;;;;;6183039;23;20225;-88
2021/08/23 21:42:37;;;;;;;14.68;8.30;;;;;;;;;;6181161;23;20171;-89
2021/08/23 21:45:43;;;;;;;13.52;8.35;;;;;;;;;;6169366;23;20176;-89
2021/08/23 21:48:48;;;;;;;13.27;8.70;;;;;;;;;;6167429;23;20285;-91
2021/08/23 21:51:53;;;;;;;11.27;7.20;;;;;;;;;;6166669;23;20267;-88
2021/08/23 21:54:57;;;;;;;11.95;7.22;;;;;;;;;;6165917;23;20294;-89
2021/08/23 21:58:05;;;;;;;12.82;8.05;;;;;;;;;;6164224;23;20502;-90
2021/08/23 22:01:36;;;;;;;12.02;7.82;;;;;;;;;;6165836;23;20168;-90
2021/08/23 22:04:43;;;;;;;11.68;7.53;;;;;;;;;;6165426;23;20335;-90
2021/08/23 22:07:48;;;;;;;14.10;7.30;;;;;;;;;;6165005;23;20176;-91
2021/08/23 22:10:53;;;;;;;13.63;7.15;;;;;;;;;;6164856;23;20640;-89
2021/08/23 22:13:58;;;;;;;12.05;7.15;;;;;;;;;;6164334;23;20251;-89
2021/08/23 22:17:05;;;;;;;10.27;6.90;;;;;;;;;;6165301;23;20196;-90
2021/08/23 22:20:13;;;;;;;12.68;6.95;;;;;;;;;;6164688;23;20175;-89
2021/08/23 22:23:18;;;;;;;10.13;6.68;;;;;;;;;;6165100;23;20161;-89
2021/08/23 22:26:23;;;;;;;14.68;7.03;;;;;;;;;;6165558;23;20180;-91
2021/08/23 22:29:28;;;;;;;11.07;6.55;;;;;;;;;;6164021;23;20265;-88
2021/08/23 22:32:33;;;;;;;9.82;6.20;;;;;;;;;;6164793;23;20183;-89
2021/08/23 22:35:40;;;;;;;8.43;5.75;;;;;;;;;;6164257;23;20164;-89
2021/08/23 22:38:45;;;;;;;10.45;5.38;;;;;;;;;;6162569;23;20177;-89
2021/08/23 22:41:50;;;;;;;7.55;4.88;;;;;;;;;;6165336;23;20208;-89
2021/08/23 22:44:55;;;;;;;8.25;4.95;;;;;;;;;;6162821;23;20266;-89
2021/08/23 22:47:59;;;;;;;7.28;4.75;;;;;;;;;;6162040;23;20209;-87
2021/08/23 22:51:10;;;;;;;7.85;4.68;;;;;;;;;;6164912;23;20168;-91
2021/08/23 22:54:15;;;;;;;8.07;4.50;;;;;;;;;;6164829;23;20164;-89
2021/08/23 22:57:20;;;;;;;9.93;4.80;;;;;;;;;;6164804;23;20212;-90
2021/08/23 23:00:25;;;;;;;6.22;4.05;;;;;;;;;;6165669;23;20169;-90
2021/08/23 23:03:30;;;;;;;5.38;3.90;;;;;;;;;;6164653;23;20220;-88
2021/08/23 23:06:37;;;;;;;6.05;3.90;;;;;;;;;;6165907;23;20192;-89
2021/08/23 23:09:42;;;;;;;7.78;3.40;;;;;;;;;;6164965;23;20229;-89
2021/08/23 23:12:47;;;;;;;5.43;3.42;;;;;;;;;;6166553;23;20269;-90
2021/08/23 23:15:52;;;;;;;4.95;2.40;;;;;;;;;;6166476;23;20171;-88
2021/08/23 23:18:58;;;;;;;4.00;2.60;;;;;;;;;;6166133;23;20508;-87
2021/08/23 23:22:04;;;;;;;6.35;2.30;;;;;;;;;;6167456;23;20204;-89
2021/08/23 23:25:10;;;;;;;9.95;2.40;;;;;;;;;;6168396;23;20235;-89
2021/08/23 23:28:15;;;;;;;2.80;2.25;;;;;;;;;;6168465;23;20175;-89
2021/08/23 23:31:20;;;;;;;2.78;1.83;;;;;;;;;;6168292;23;20163;-90
2021/08/23 23:34:25;;;;;;;3.47;2.08;;;;;;;;;;6166550;23;20169;-88
2021/08/23 23:37:31;;;;;;;5.22;2.13;;;;;;;;;;6167467;23;20193;-90
2021/08/23 23:40:37;;;;;;;3.47;2.00;;;;;;;;;;6166989;23;20234;-90
2021/08/23 23:43:42;;;;;;;6.53;1.58;;;;;;;;;;6166225;23;20529;-91
2021/08/23 23:46:47;;;;;;;4.47;1.90;;;;;;;;;;6165513;23;20616;-89
2021/08/23 23:49:52;;;;;;;5.43;1.33;;;;;;;;;;6164638;23;20176;-88
2021/08/23 23:52:59;;;;;;;2.75;1.20;;;;;;;;;;6165328;23;20200;-90
2021/08/23 23:56:03;;;;;;;2.83;1.60;;;;;;;;;;6166724;23;20503;-89
2021/08/23 23:59:08;;;;;;;4.15;1.20;;;;;;;;;;6166173;23;20157;-88
